sensor_id;sensor_type;location;lat;lon;timestamp;P1;durP1;ratioP1;P2;durP2;ratioP2
44766;SDS011;30487;48.716;9.272;2023-08-20T00:00:10;13.65;;;6.25;;
44766;SDS011;30487;48.716;9.272;2023-08-20T00:02:37;10.40;;;6.57;;
44766;SDS011;30487;48.716;9.272;2023-08-20T00:05:04;10.57;;;6.38;;
44766;SDS011;30487;48.716;9.272;2023-08-20T00:07:31;12.07;;;6.50;;
44766;SDS011;30487;48.716;9.272;2023-08-20T00:09:57;9.20;;;6.85;;
44766;SDS011;30487;48.716;9.272;2023-08-20T00:12:23;12.55;;;6.80;;
44766;SDS011;30487;48.716;9.272;2023-08-20T00:14:51;11.10;;;7.28;;
44766;SDS011;30487;48.716;9.272;2023-08-20T00:17:23;13.90;;;7.43;;
44766;SDS011;30487;48.716;9.272;2023-08-20T00:19:52;14.82;;;8.60;;
44766;SDS011;30487;48.716;9.272;2023-08-20T00:22:24;11.27;;;7.88;;
44766;SDS011;30487;48.716;9.272;2023-08-20T00:24:51;13.48;;;8.50;;
44766;SDS011;30487;48.716;9.272;2023-08-20T00:27:20;13.10;;;8.60;;
44766;SDS011;30487;48.716;9.272;2023-08-20T00:29:46;12.57;;;7.80;;
44766;SDS011;30487;48.716;9.272;2023-08-20T00:32:11;12.48;;;7.97;;
44766;SDS011;30487;48.716;9.272;2023-08-20T00:34:37;13.25;;;8.35;;
44766;SDS011;30487;48.716;9.272;2023-08-20T00:37:03;13.65;;;8.55;;
44766;SDS011;30487;48.716;9.272;2023-08-20T00:39:28;10.88;;;7.50;;
44766;SDS011;30487;48.716;9.272;2023-08-20T00:41:55;10.85;;;7.60;;
44766;SDS011;30487;48.716;9.272;2023-08-20T00:44:20;13.57;;;7.75;;
44766;SDS011;30487;48.716;9.272;2023-08-20T00:46:46;16.23;;;8.18;;
44766;SDS011;30487;48.716;9.272;2023-08-20T00:49:12;12.98;;;8.07;;
44766;SDS011;30487;48.716;9.272;2023-08-20T00:51:38;11.90;;;8.30;;
44766;SDS011;30487;48.716;9.272;2023-08-20T00:54:04;13.40;;;8.02;;
44766;SDS011;30487;48.716;9.272;2023-08-20T00:56:30;11.82;;;8.02;;
44766;SDS011;30487;48.716;9.272;2023-08-20T00:58:56;12.90;;;8.43;;
44766;SDS011;30487;48.716;9.272;2023-08-20T01:01:22;12.43;;;7.80;;
44766;SDS011;30487;48.716;9.272;2023-08-20T01:03:48;12.63;;;7.97;;
44766;SDS011;30487;48.716;9.272;2023-08-20T01:06:20;11.50;;;7.72;;
44766;SDS011;30487;48.716;9.272;2023-08-20T01:09:06;10.73;;;7.78;;
44766;SDS011;30487;48.716;9.272;2023-08-20T01:11:50;12.45;;;7.28;;
44766;SDS011;30487;48.716;9.272;2023-08-20T01:14:20;10.98;;;7.82;;
44766;SDS011;30487;48.716;9.272;2023-08-20T01:16:46;9.80;;;6.65;;
44766;SDS011;30487;48.716;9.272;2023-08-20T01:19:15;12.88;;;7.57;;
44766;SDS011;30487;48.716;9.272;2023-08-20T01:22:21;11.10;;;6.80;;
44766;SDS011;30487;48.716;9.272;2023-08-20T01:24:52;12.25;;;8.05;;
44766;SDS011;30487;48.716;9.272;2023-08-20T01:30:14;12.43;;;7.30;;
44766;SDS011;30487;48.716;9.272;2023-08-20T01:32:40;11.25;;;7.72;;
44766;SDS011;30487;48.716;9.272;2023-08-20T01:35:07;15.55;;;7.97;;
44766;SDS011;30487;48.716;9.272;2023-08-20T01:37:38;15.52;;;8.32;;
44766;SDS011;30487;48.716;9.272;2023-08-20T01:40:04;9.90;;;7.22;;
44766;SDS011;30487;48.716;9.272;2023-08-20T01:42:32;10.65;;;6.95;;
44766;SDS011;30487;48.716;9.272;2023-08-20T01:44:58;12.10;;;7.68;;
44766;SDS011;30487;48.716;9.272;2023-08-20T01:47:23;12.77;;;7.35;;
44766;SDS011;30487;48.716;9.272;2023-08-20T01:49:49;11.07;;;7.57;;
44766;SDS011;30487;48.716;9.272;2023-08-20T01:52:14;13.95;;;7.30;;
44766;SDS011;30487;48.716;9.272;2023-08-20T01:54:40;13.38;;;7.40;;
44766;SDS011;30487;48.716;9.272;2023-08-20T01:57:05;11.35;;;7.38;;
44766;SDS011;30487;48.716;9.272;2023-08-20T01:59:31;14.05;;;7.78;;
44766;SDS011;30487;48.716;9.272;2023-08-20T02:01:57;10.23;;;7.45;;
44766;SDS011;30487;48.716;9.272;2023-08-20T02:04:22;10.38;;;7.38;;
44766;SDS011;30487;48.716;9.272;2023-08-20T02:06:48;10.40;;;7.47;;
44766;SDS011;30487;48.716;9.272;2023-08-20T02:09:13;14.07;;;7.32;;
44766;SDS011;30487;48.716;9.272;2023-08-20T02:11:39;12.50;;;7.10;;
44766;SDS011;30487;48.716;9.272;2023-08-20T02:14:04;11.25;;;7.60;;
44766;SDS011;30487;48.716;9.272;2023-08-20T02:16:30;11.90;;;7.75;;
44766;SDS011;30487;48.716;9.272;2023-08-20T02:18:55;10.10;;;7.07;;
44766;SDS011;30487;48.716;9.272;2023-08-20T02:21:21;13.13;;;7.95;;
44766;SDS011;30487;48.716;9.272;2023-08-20T02:23:46;10.98;;;7.45;;
44766;SDS011;30487;48.716;9.272;2023-08-20T02:26:12;12.07;;;8.30;;
44766;SDS011;30487;48.716;9.272;2023-08-20T02:28:37;13.50;;;8.07;;
44766;SDS011;30487;48.716;9.272;2023-08-20T02:31:04;11.80;;;7.82;;
44766;SDS011;30487;48.716;9.272;2023-08-20T02:33:30;12.60;;;7.55;;
44766;SDS011;30487;48.716;9.272;2023-08-20T02:36:00;10.68;;;7.15;;
44766;SDS011;30487;48.716;9.272;2023-08-20T02:38:29;11.35;;;7.68;;
44766;SDS011;30487;48.716;9.272;2023-08-20T02:40:54;10.18;;;7.82;;
44766;SDS011;30487;48.716;9.272;2023-08-20T02:43:20;12.35;;;7.63;;
44766;SDS011;30487;48.716;9.272;2023-08-20T02:45:46;11.52;;;8.02;;
44766;SDS011;30487;48.716;9.272;2023-08-20T02:48:12;12.57;;;7.90;;
44766;SDS011;30487;48.716;9.272;2023-08-20T02:50:38;9.80;;;7.70;;
44766;SDS011;30487;48.716;9.272;2023-08-20T02:53:04;13.45;;;7.93;;
44766;SDS011;30487;48.716;9.272;2023-08-20T02:55:30;9.85;;;7.20;;
44766;SDS011;30487;48.716;9.272;2023-08-20T02:57:56;11.65;;;8.32;;
44766;SDS011;30487;48.716;9.272;2023-08-20T03:00:22;13.25;;;7.88;;
44766;SDS011;30487;48.716;9.272;2023-08-20T03:02:47;12.50;;;8.02;;
44766;SDS011;30487;48.716;9.272;2023-08-20T03:05:13;11.75;;;7.57;;
44766;SDS011;30487;48.716;9.272;2023-08-20T03:07:39;12.20;;;7.35;;
44766;SDS011;30487;48.716;9.272;2023-08-20T03:10:05;12.23;;;7.60;;
44766;SDS011;30487;48.716;9.272;2023-08-20T03:12:31;11.02;;;7.85;;
44766;SDS011;30487;48.716;9.272;2023-08-20T03:14:56;13.73;;;7.55;;
44766;SDS011;30487;48.716;9.272;2023-08-20T03:17:22;15.13;;;8.10;;
44766;SDS011;30487;48.716;9.272;2023-08-20T03:19:55;11.30;;;7.40;;
44766;SDS011;30487;48.716;9.272;2023-08-20T03:22:22;14.25;;;8.40;;
44766;SDS011;30487;48.716;9.272;2023-08-20T03:24:49;11.45;;;7.47;;
44766;SDS011;30487;48.716;9.272;2023-08-20T03:27:15;12.68;;;8.43;;
44766;SDS011;30487;48.716;9.272;2023-08-20T03:29:40;13.52;;;8.27;;
44766;SDS011;30487;48.716;9.272;2023-08-20T03:32:06;13.15;;;7.80;;
44766;SDS011;30487;48.716;9.272;2023-08-20T03:34:31;12.38;;;7.50;;
44766;SDS011;30487;48.716;9.272;2023-08-20T03:36:57;14.48;;;7.68;;
44766;SDS011;30487;48.716;9.272;2023-08-20T03:39:23;12.52;;;8.52;;
44766;SDS011;30487;48.716;9.272;2023-08-20T03:41:49;12.25;;;8.88;;
44766;SDS011;30487;48.716;9.272;2023-08-20T03:44:15;12.32;;;8.77;;
44766;SDS011;30487;48.716;9.272;2023-08-20T03:46:41;16.45;;;9.88;;
44766;SDS011;30487;48.716;9.272;2023-08-20T03:49:06;13.50;;;9.32;;
44766;SDS011;30487;48.716;9.272;2023-08-20T03:51:32;19.67;;;10.20;;
44766;SDS011;30487;48.716;9.272;2023-08-20T03:53:57;15.80;;;10.68;;
44766;SDS011;30487;48.716;9.272;2023-08-20T03:56:23;13.93;;;9.68;;
44766;SDS011;30487;48.716;9.272;2023-08-20T03:58:49;13.10;;;8.95;;
44766;SDS011;30487;48.716;9.272;2023-08-20T04:01:15;15.75;;;8.65;;
44766;SDS011;30487;48.716;9.272;2023-08-20T04:03:40;13.35;;;8.55;;
44766;SDS011;30487;48.716;9.272;2023-08-20T04:06:06;10.95;;;7.68;;
44766;SDS011;30487;48.716;9.272;2023-08-20T04:08:32;13.50;;;7.70;;
44766;SDS011;30487;48.716;9.272;2023-08-20T04:10:57;10.93;;;8.00;;
44766;SDS011;30487;48.716;9.272;2023-08-20T04:13:23;11.15;;;7.38;;
44766;SDS011;30487;48.716;9.272;2023-08-20T04:15:49;13.27;;;7.90;;
44766;SDS011;30487;48.716;9.272;2023-08-20T04:18:16;12.45;;;7.50;;
44766;SDS011;30487;48.716;9.272;2023-08-20T04:20:42;16.40;;;8.07;;
44766;SDS011;30487;48.716;9.272;2023-08-20T04:23:07;13.30;;;7.75;;
44766;SDS011;30487;48.716;9.272;2023-08-20T04:25:33;12.50;;;7.95;;
44766;SDS011;30487;48.716;9.272;2023-08-20T04:27:59;12.00;;;7.53;;
44766;SDS011;30487;48.716;9.272;2023-08-20T04:30:24;9.52;;;7.15;;
44766;SDS011;30487;48.716;9.272;2023-08-20T04:32:50;13.65;;;7.88;;
44766;SDS011;30487;48.716;9.272;2023-08-20T04:35:15;13.13;;;7.78;;
44766;SDS011;30487;48.716;9.272;2023-08-20T04:37:41;13.98;;;7.43;;
44766;SDS011;30487;48.716;9.272;2023-08-20T04:40:07;11.27;;;7.45;;
44766;SDS011;30487;48.716;9.272;2023-08-20T04:42:33;15.15;;;7.90;;
44766;SDS011;30487;48.716;9.272;2023-08-20T04:44:58;12.43;;;7.45;;
44766;SDS011;30487;48.716;9.272;2023-08-20T04:47:24;10.73;;;6.95;;
44766;SDS011;30487;48.716;9.272;2023-08-20T04:49:50;14.35;;;7.57;;
44766;SDS011;30487;48.716;9.272;2023-08-20T04:52:15;12.73;;;7.65;;
44766;SDS011;30487;48.716;9.272;2023-08-20T04:54:41;12.68;;;8.27;;
44766;SDS011;30487;48.716;9.272;2023-08-20T04:57:07;14.13;;;8.43;;
44766;SDS011;30487;48.716;9.272;2023-08-20T04:59:32;14.73;;;8.43;;
44766;SDS011;30487;48.716;9.272;2023-08-20T05:01:58;11.30;;;8.38;;
44766;SDS011;30487;48.716;9.272;2023-08-20T05:04:23;18.88;;;9.23;;
44766;SDS011;30487;48.716;9.272;2023-08-20T05:06:49;14.07;;;9.45;;
44766;SDS011;30487;48.716;9.272;2023-08-20T05:09:15;14.52;;;9.45;;
44766;SDS011;30487;48.716;9.272;2023-08-20T05:11:41;18.92;;;10.80;;
44766;SDS011;30487;48.716;9.272;2023-08-20T05:14:07;14.02;;;10.35;;
44766;SDS011;30487;48.716;9.272;2023-08-20T05:16:32;17.20;;;10.13;;
44766;SDS011;30487;48.716;9.272;2023-08-20T05:18:58;13.88;;;10.15;;
44766;SDS011;30487;48.716;9.272;2023-08-20T05:21:23;15.50;;;10.30;;
44766;SDS011;30487;48.716;9.272;2023-08-20T05:23:49;13.43;;;9.90;;
44766;SDS011;30487;48.716;9.272;2023-08-20T05:26:15;14.00;;;9.45;;
44766;SDS011;30487;48.716;9.272;2023-08-20T05:28:41;16.17;;;10.10;;
44766;SDS011;30487;48.716;9.272;2023-08-20T05:31:06;14.10;;;9.07;;
44766;SDS011;30487;48.716;9.272;2023-08-20T05:33:32;12.95;;;9.00;;
44766;SDS011;30487;48.716;9.272;2023-08-20T05:35:58;14.52;;;8.68;;
44766;SDS011;30487;48.716;9.272;2023-08-20T05:38:24;12.80;;;8.00;;
44766;SDS011;30487;48.716;9.272;2023-08-20T05:40:50;15.77;;;8.30;;
44766;SDS011;30487;48.716;9.272;2023-08-20T05:43:16;10.60;;;7.57;;
44766;SDS011;30487;48.716;9.272;2023-08-20T05:45:41;14.40;;;8.55;;
44766;SDS011;30487;48.716;9.272;2023-08-20T05:48:07;11.23;;;8.82;;
44766;SDS011;30487;48.716;9.272;2023-08-20T05:50:32;14.20;;;8.57;;
44766;SDS011;30487;48.716;9.272;2023-08-20T05:52:58;17.63;;;9.70;;
44766;SDS011;30487;48.716;9.272;2023-08-20T05:55:24;13.50;;;9.32;;
44766;SDS011;30487;48.716;9.272;2023-08-20T05:57:49;13.40;;;8.73;;
44766;SDS011;30487;48.716;9.272;2023-08-20T06:00:15;15.73;;;8.63;;
44766;SDS011;30487;48.716;9.272;2023-08-20T06:02:43;13.65;;;8.77;;
44766;SDS011;30487;48.716;9.272;2023-08-20T06:05:09;14.70;;;9.10;;
44766;SDS011;30487;48.716;9.272;2023-08-20T06:07:35;12.15;;;8.00;;
44766;SDS011;30487;48.716;9.272;2023-08-20T06:10:01;16.15;;;9.10;;
44766;SDS011;30487;48.716;9.272;2023-08-20T06:12:26;13.85;;;8.30;;
44766;SDS011;30487;48.716;9.272;2023-08-20T06:14:52;11.18;;;7.53;;
44766;SDS011;30487;48.716;9.272;2023-08-20T06:17:17;12.68;;;8.20;;
44766;SDS011;30487;48.716;9.272;2023-08-20T06:19:44;11.65;;;8.20;;
44766;SDS011;30487;48.716;9.272;2023-08-20T06:22:09;17.40;;;10.23;;
44766;SDS011;30487;48.716;9.272;2023-08-20T06:24:35;13.55;;;8.70;;
44766;SDS011;30487;48.716;9.272;2023-08-20T06:27:00;15.55;;;9.20;;
44766;SDS011;30487;48.716;9.272;2023-08-20T06:29:26;17.88;;;9.93;;
44766;SDS011;30487;48.716;9.272;2023-08-20T06:31:52;12.48;;;10.15;;
44766;SDS011;30487;48.716;9.272;2023-08-20T06:34:17;14.27;;;10.50;;
44766;SDS011;30487;48.716;9.272;2023-08-20T06:36:43;13.18;;;9.10;;
44766;SDS011;30487;48.716;9.272;2023-08-20T06:39:09;18.75;;;9.80;;
44766;SDS011;30487;48.716;9.272;2023-08-20T06:41:34;17.48;;;9.98;;
44766;SDS011;30487;48.716;9.272;2023-08-20T06:44:00;17.27;;;9.10;;
44766;SDS011;30487;48.716;9.272;2023-08-20T06:46:27;13.52;;;9.85;;
44766;SDS011;30487;48.716;9.272;2023-08-20T06:48:52;14.13;;;9.05;;
44766;SDS011;30487;48.716;9.272;2023-08-20T06:51:21;14.18;;;9.88;;
44766;SDS011;30487;48.716;9.272;2023-08-20T06:53:47;17.75;;;9.30;;
44766;SDS011;30487;48.716;9.272;2023-08-20T06:56:13;13.30;;;8.80;;
44766;SDS011;30487;48.716;9.272;2023-08-20T06:58:40;13.35;;;8.88;;
44766;SDS011;30487;48.716;9.272;2023-08-20T07:01:06;15.43;;;9.20;;
44766;SDS011;30487;48.716;9.272;2023-08-20T07:03:36;12.52;;;9.00;;
44766;SDS011;30487;48.716;9.272;2023-08-20T07:06:03;14.48;;;8.88;;
44766;SDS011;30487;48.716;9.272;2023-08-20T07:08:29;10.73;;;8.05;;
44766;SDS011;30487;48.716;9.272;2023-08-20T07:10:55;14.18;;;7.90;;
44766;SDS011;30487;48.716;9.272;2023-08-20T07:13:20;14.55;;;7.85;;
44766;SDS011;30487;48.716;9.272;2023-08-20T07:15:46;11.45;;;7.68;;
44766;SDS011;30487;48.716;9.272;2023-08-20T07:18:12;12.63;;;8.43;;
44766;SDS011;30487;48.716;9.272;2023-08-20T07:20:39;10.18;;;8.20;;
44766;SDS011;30487;48.716;9.272;2023-08-20T07:23:07;12.43;;;7.95;;
44766;SDS011;30487;48.716;9.272;2023-08-20T07:25:33;10.13;;;7.72;;
44766;SDS011;30487;48.716;9.272;2023-08-20T07:28:01;14.63;;;8.10;;
44766;SDS011;30487;48.716;9.272;2023-08-20T07:30:27;13.15;;;7.82;;
44766;SDS011;30487;48.716;9.272;2023-08-20T07:32:53;13.38;;;8.38;;
44766;SDS011;30487;48.716;9.272;2023-08-20T07:35:18;12.65;;;7.75;;
44766;SDS011;30487;48.716;9.272;2023-08-20T07:37:44;12.68;;;8.00;;
44766;SDS011;30487;48.716;9.272;2023-08-20T07:40:11;13.10;;;8.05;;
44766;SDS011;30487;48.716;9.272;2023-08-20T07:42:38;15.25;;;8.77;;
44766;SDS011;30487;48.716;9.272;2023-08-20T07:45:05;11.85;;;7.90;;
44766;SDS011;30487;48.716;9.272;2023-08-20T07:47:32;12.23;;;8.05;;
44766;SDS011;30487;48.716;9.272;2023-08-20T07:49:58;12.77;;;8.40;;
44766;SDS011;30487;48.716;9.272;2023-08-20T07:52:23;13.88;;;7.82;;
44766;SDS011;30487;48.716;9.272;2023-08-20T07:54:49;12.25;;;8.35;;
44766;SDS011;30487;48.716;9.272;2023-08-20T07:57:15;10.23;;;7.20;;
44766;SDS011;30487;48.716;9.272;2023-08-20T07:59:40;9.93;;;6.88;;
44766;SDS011;30487;48.716;9.272;2023-08-20T08:02:06;11.57;;;7.07;;
44766;SDS011;30487;48.716;9.272;2023-08-20T08:04:32;13.68;;;7.85;;
44766;SDS011;30487;48.716;9.272;2023-08-20T08:06:59;11.80;;;8.32;;
44766;SDS011;30487;48.716;9.272;2023-08-20T08:09:28;13.73;;;7.72;;
44766;SDS011;30487;48.716;9.272;2023-08-20T08:11:55;10.45;;;7.60;;
44766;SDS011;30487;48.716;9.272;2023-08-20T08:14:21;11.63;;;8.60;;
44766;SDS011;30487;48.716;9.272;2023-08-20T08:16:47;12.60;;;8.45;;
44766;SDS011;30487;48.716;9.272;2023-08-20T08:19:13;11.77;;;8.10;;
44766;SDS011;30487;48.716;9.272;2023-08-20T08:21:39;16.80;;;7.45;;
44766;SDS011;30487;48.716;9.272;2023-08-20T08:24:06;11.95;;;7.78;;
44766;SDS011;30487;48.716;9.272;2023-08-20T08:26:33;11.00;;;7.10;;
44766;SDS011;30487;48.716;9.272;2023-08-20T08:28:59;11.73;;;7.25;;
44766;SDS011;30487;48.716;9.272;2023-08-20T08:31:25;11.27;;;7.22;;
44766;SDS011;30487;48.716;9.272;2023-08-20T08:33:50;9.82;;;7.82;;
44766;SDS011;30487;48.716;9.272;2023-08-20T08:36:16;14.48;;;7.70;;
44766;SDS011;30487;48.716;9.272;2023-08-20T08:38:42;12.27;;;6.93;;
44766;SDS011;30487;48.716;9.272;2023-08-20T08:41:10;9.13;;;7.45;;
44766;SDS011;30487;48.716;9.272;2023-08-20T08:43:37;10.43;;;6.80;;
44766;SDS011;30487;48.716;9.272;2023-08-20T08:46:05;10.77;;;6.72;;
44766;SDS011;30487;48.716;9.272;2023-08-20T08:48:33;10.65;;;6.95;;
44766;SDS011;30487;48.716;9.272;2023-08-20T08:51:00;12.50;;;7.15;;
44766;SDS011;30487;48.716;9.272;2023-08-20T08:53:26;13.48;;;7.45;;
44766;SDS011;30487;48.716;9.272;2023-08-20T08:55:52;12.15;;;6.95;;
44766;SDS011;30487;48.716;9.272;2023-08-20T08:58:18;11.60;;;6.75;;
44766;SDS011;30487;48.716;9.272;2023-08-20T09:00:43;10.95;;;6.65;;
44766;SDS011;30487;48.716;9.272;2023-08-20T09:03:09;13.90;;;6.93;;
44766;SDS011;30487;48.716;9.272;2023-08-20T09:05:47;8.63;;;6.10;;
44766;SDS011;30487;48.716;9.272;2023-08-20T09:08:27;10.02;;;7.15;;
44766;SDS011;30487;48.716;9.272;2023-08-20T09:10:54;12.05;;;6.25;;
44766;SDS011;30487;48.716;9.272;2023-08-20T09:15:51;14.57;;;7.05;;
44766;SDS011;30487;48.716;9.272;2023-08-20T09:18:18;12.60;;;7.30;;
44766;SDS011;30487;48.716;9.272;2023-08-20T09:20:44;13.30;;;6.82;;
44766;SDS011;30487;48.716;9.272;2023-08-20T09:23:12;10.50;;;6.60;;
44766;SDS011;30487;48.716;9.272;2023-08-20T09:25:38;13.40;;;7.05;;
44766;SDS011;30487;48.716;9.272;2023-08-20T09:28:04;11.15;;;7.00;;
44766;SDS011;30487;48.716;9.272;2023-08-20T09:30:30;8.13;;;6.18;;
44766;SDS011;30487;48.716;9.272;2023-08-20T09:33:07;12.95;;;6.68;;
44766;SDS011;30487;48.716;9.272;2023-08-20T09:35:35;8.23;;;6.07;;
44766;SDS011;30487;48.716;9.272;2023-08-20T09:38:01;11.70;;;6.22;;
44766;SDS011;30487;48.716;9.272;2023-08-20T09:40:28;8.65;;;5.97;;
44766;SDS011;30487;48.716;9.272;2023-08-20T09:42:54;11.55;;;6.00;;
44766;SDS011;30487;48.716;9.272;2023-08-20T09:45:21;9.77;;;6.18;;
44766;SDS011;30487;48.716;9.272;2023-08-20T09:47:49;8.77;;;5.85;;
44766;SDS011;30487;48.716;9.272;2023-08-20T09:50:18;8.55;;;5.80;;
44766;SDS011;30487;48.716;9.272;2023-08-20T09:55:23;12.93;;;6.20;;
44766;SDS011;30487;48.716;9.272;2023-08-20T09:57:55;9.93;;;6.00;;
44766;SDS011;30487;48.716;9.272;2023-08-20T10:00:22;7.88;;;6.18;;
44766;SDS011;30487;48.716;9.272;2023-08-20T10:02:47;7.18;;;5.53;;
44766;SDS011;30487;48.716;9.272;2023-08-20T10:05:14;9.85;;;5.75;;
44766;SDS011;30487;48.716;9.272;2023-08-20T10:07:40;9.35;;;5.57;;
44766;SDS011;30487;48.716;9.272;2023-08-20T10:10:08;7.13;;;5.50;;
44766;SDS011;30487;48.716;9.272;2023-08-20T10:12:38;9.27;;;5.68;;
44766;SDS011;30487;48.716;9.272;2023-08-20T10:15:06;9.13;;;5.30;;
44766;SDS011;30487;48.716;9.272;2023-08-20T10:17:33;9.50;;;5.57;;
44766;SDS011;30487;48.716;9.272;2023-08-20T10:20:00;9.98;;;5.25;;
44766;SDS011;30487;48.716;9.272;2023-08-20T10:22:35;8.73;;;5.20;;
44766;SDS011;30487;48.716;9.272;2023-08-20T10:25:04;8.20;;;5.60;;
44766;SDS011;30487;48.716;9.272;2023-08-20T10:27:31;11.48;;;5.65;;
44766;SDS011;30487;48.716;9.272;2023-08-20T10:29:59;7.38;;;4.97;;
44766;SDS011;30487;48.716;9.272;2023-08-20T10:35:17;11.73;;;5.32;;
44766;SDS011;30487;48.716;9.272;2023-08-20T10:38:01;9.05;;;5.22;;
44766;SDS011;30487;48.716;9.272;2023-08-20T10:40:56;7.45;;;5.45;;
44766;SDS011;30487;48.716;9.272;2023-08-20T10:48:44;10.25;;;4.93;;
44766;SDS011;30487;48.716;9.272;2023-08-20T10:51:28;7.35;;;5.38;;
44766;SDS011;30487;48.716;9.272;2023-08-20T10:59:17;7.68;;;5.22;;
44766;SDS011;30487;48.716;9.272;2023-08-20T11:01:47;10.20;;;5.75;;
44766;SDS011;30487;48.716;9.272;2023-08-20T11:04:17;7.25;;;5.38;;
44766;SDS011;30487;48.716;9.272;2023-08-20T11:06:45;9.30;;;5.30;;
44766;SDS011;30487;48.716;9.272;2023-08-20T11:09:14;8.25;;;5.72;;
44766;SDS011;30487;48.716;9.272;2023-08-20T11:11:40;8.77;;;6.10;;
44766;SDS011;30487;48.716;9.272;2023-08-20T11:14:07;8.65;;;5.63;;
44766;SDS011;30487;48.716;9.272;2023-08-20T11:16:39;7.63;;;5.38;;
44766;SDS011;30487;48.716;9.272;2023-08-20T11:19:05;8.20;;;5.28;;
44766;SDS011;30487;48.716;9.272;2023-08-20T11:21:34;8.63;;;4.85;;
44766;SDS011;30487;48.716;9.272;2023-08-20T11:24:00;6.18;;;4.45;;
44766;SDS011;30487;48.716;9.272;2023-08-20T11:26:26;10.50;;;5.20;;
44766;SDS011;30487;48.716;9.272;2023-08-20T11:28:52;6.13;;;4.72;;
44766;SDS011;30487;48.716;9.272;2023-08-20T11:31:18;9.88;;;5.10;;
44766;SDS011;30487;48.716;9.272;2023-08-20T11:33:44;10.80;;;5.20;;
44766;SDS011;30487;48.716;9.272;2023-08-20T11:36:10;8.60;;;4.30;;
44766;SDS011;30487;48.716;9.272;2023-08-20T11:38:36;6.13;;;4.50;;
44766;SDS011;30487;48.716;9.272;2023-08-20T11:41:02;7.78;;;5.18;;
44766;SDS011;30487;48.716;9.272;2023-08-20T11:43:28;7.50;;;4.85;;
44766;SDS011;30487;48.716;9.272;2023-08-20T11:45:54;9.50;;;4.53;;
44766;SDS011;30487;48.716;9.272;2023-08-20T11:48:20;6.57;;;4.65;;
44766;SDS011;30487;48.716;9.272;2023-08-20T11:50:49;11.32;;;5.05;;
44766;SDS011;30487;48.716;9.272;2023-08-20T11:53:15;7.53;;;4.80;;
44766;SDS011;30487;48.716;9.272;2023-08-20T11:55:47;9.25;;;4.55;;
44766;SDS011;30487;48.716;9.272;2023-08-20T11:58:13;6.78;;;5.00;;
44766;SDS011;30487;48.716;9.272;2023-08-20T12:00:39;6.47;;;5.00;;
44766;SDS011;30487;48.716;9.272;2023-08-20T12:03:05;11.55;;;5.10;;
44766;SDS011;30487;48.716;9.272;2023-08-20T12:05:31;6.10;;;4.53;;
44766;SDS011;30487;48.716;9.272;2023-08-20T12:07:57;7.75;;;4.72;;
44766;SDS011;30487;48.716;9.272;2023-08-20T12:10:28;9.68;;;4.50;;
44766;SDS011;30487;48.716;9.272;2023-08-20T12:12:55;6.45;;;4.28;;
44766;SDS011;30487;48.716;9.272;2023-08-20T12:15:21;7.50;;;4.28;;
44766;SDS011;30487;48.716;9.272;2023-08-20T12:17:57;10.57;;;5.10;;
44766;SDS011;30487;48.716;9.272;2023-08-20T12:20:30;7.05;;;4.72;;
44766;SDS011;30487;48.716;9.272;2023-08-20T12:23:04;9.55;;;4.90;;
44766;SDS011;30487;48.716;9.272;2023-08-20T12:25:31;6.60;;;5.00;;
44766;SDS011;30487;48.716;9.272;2023-08-20T12:27:59;8.15;;;4.45;;
44766;SDS011;30487;48.716;9.272;2023-08-20T12:30:25;7.70;;;4.72;;
44766;SDS011;30487;48.716;9.272;2023-08-20T12:32:51;9.18;;;4.68;;
44766;SDS011;30487;48.716;9.272;2023-08-20T12:35:17;7.80;;;4.43;;
44766;SDS011;30487;48.716;9.272;2023-08-20T12:37:43;9.65;;;4.68;;
44766;SDS011;30487;48.716;9.272;2023-08-20T12:40:08;8.10;;;4.35;;
44766;SDS011;30487;48.716;9.272;2023-08-20T12:42:37;8.07;;;4.28;;
44766;SDS011;30487;48.716;9.272;2023-08-20T12:45:04;7.85;;;4.35;;
44766;SDS011;30487;48.716;9.272;2023-08-20T12:47:34;7.40;;;4.57;;
44766;SDS011;30487;48.716;9.272;2023-08-20T12:50:00;9.73;;;4.47;;
44766;SDS011;30487;48.716;9.272;2023-08-20T12:52:28;9.15;;;4.88;;
44766;SDS011;30487;48.716;9.272;2023-08-20T12:54:53;10.70;;;4.50;;
44766;SDS011;30487;48.716;9.272;2023-08-20T12:57:19;9.98;;;4.32;;
44766;SDS011;30487;48.716;9.272;2023-08-20T12:59:44;9.02;;;4.90;;
44766;SDS011;30487;48.716;9.272;2023-08-20T13:02:10;6.07;;;4.22;;
44766;SDS011;30487;48.716;9.272;2023-08-20T13:04:36;9.20;;;4.75;;
44766;SDS011;30487;48.716;9.272;2023-08-20T13:07:02;6.97;;;4.20;;
44766;SDS011;30487;48.716;9.272;2023-08-20T13:09:28;9.98;;;4.38;;
44766;SDS011;30487;48.716;9.272;2023-08-20T13:11:56;7.28;;;4.43;;
44766;SDS011;30487;48.716;9.272;2023-08-20T13:14:22;5.88;;;4.22;;
44766;SDS011;30487;48.716;9.272;2023-08-20T13:16:48;7.68;;;4.68;;
44766;SDS011;30487;48.716;9.272;2023-08-20T13:19:14;7.15;;;4.35;;
44766;SDS011;30487;48.716;9.272;2023-08-20T13:21:39;6.45;;;4.25;;
44766;SDS011;30487;48.716;9.272;2023-08-20T13:24:05;7.75;;;4.28;;
44766;SDS011;30487;48.716;9.272;2023-08-20T13:26:31;8.07;;;4.82;;
44766;SDS011;30487;48.716;9.272;2023-08-20T13:28:57;6.53;;;4.40;;
44766;SDS011;30487;48.716;9.272;2023-08-20T13:31:23;7.38;;;4.53;;
44766;SDS011;30487;48.716;9.272;2023-08-20T13:33:48;6.60;;;4.60;;
44766;SDS011;30487;48.716;9.272;2023-08-20T13:36:14;6.80;;;4.13;;
44766;SDS011;30487;48.716;9.272;2023-08-20T13:38:40;9.25;;;4.57;;
44766;SDS011;30487;48.716;9.272;2023-08-20T13:41:06;7.05;;;4.22;;
44766;SDS011;30487;48.716;9.272;2023-08-20T13:43:32;6.90;;;4.35;;
44766;SDS011;30487;48.716;9.272;2023-08-20T13:45:57;6.43;;;4.32;;
44766;SDS011;30487;48.716;9.272;2023-08-20T13:48:23;7.97;;;4.20;;
44766;SDS011;30487;48.716;9.272;2023-08-20T13:50:49;5.78;;;4.28;;
44766;SDS011;30487;48.716;9.272;2023-08-20T13:53:14;8.02;;;4.43;;
44766;SDS011;30487;48.716;9.272;2023-08-20T13:55:40;10.65;;;4.50;;
44766;SDS011;30487;48.716;9.272;2023-08-20T13:58:05;6.88;;;4.32;;
44766;SDS011;30487;48.716;9.272;2023-08-20T14:00:31;10.68;;;4.65;;
44766;SDS011;30487;48.716;9.272;2023-08-20T14:02:57;4.90;;;4.30;;
44766;SDS011;30487;48.716;9.272;2023-08-20T14:05:23;7.80;;;4.30;;
44766;SDS011;30487;48.716;9.272;2023-08-20T14:07:49;9.98;;;4.55;;
44766;SDS011;30487;48.716;9.272;2023-08-20T14:10:15;7.90;;;4.28;;
44766;SDS011;30487;48.716;9.272;2023-08-20T14:12:40;8.68;;;4.03;;
44766;SDS011;30487;48.716;9.272;2023-08-20T14:15:06;9.80;;;4.30;;
44766;SDS011;30487;48.716;9.272;2023-08-20T14:17:33;6.45;;;4.50;;
44766;SDS011;30487;48.716;9.272;2023-08-20T14:19:58;6.70;;;3.97;;
44766;SDS011;30487;48.716;9.272;2023-08-20T14:22:24;7.97;;;4.15;;
44766;SDS011;30487;48.716;9.272;2023-08-20T14:24:50;5.45;;;3.95;;
44766;SDS011;30487;48.716;9.272;2023-08-20T14:27:16;7.97;;;4.15;;
44766;SDS011;30487;48.716;9.272;2023-08-20T14:29:41;6.25;;;4.50;;
44766;SDS011;30487;48.716;9.272;2023-08-20T14:32:07;8.82;;;4.30;;
44766;SDS011;30487;48.716;9.272;2023-08-20T14:34:33;6.30;;;3.90;;
44766;SDS011;30487;48.716;9.272;2023-08-20T14:36:58;7.20;;;4.20;;
44766;SDS011;30487;48.716;9.272;2023-08-20T14:39:24;7.93;;;4.35;;
44766;SDS011;30487;48.716;9.272;2023-08-20T14:41:49;8.05;;;3.85;;
44766;SDS011;30487;48.716;9.272;2023-08-20T14:44:15;6.00;;;4.05;;
44766;SDS011;30487;48.716;9.272;2023-08-20T14:46:40;10.93;;;4.07;;
44766;SDS011;30487;48.716;9.272;2023-08-20T14:49:06;8.40;;;4.40;;
44766;SDS011;30487;48.716;9.272;2023-08-20T14:51:32;8.23;;;4.40;;
44766;SDS011;30487;48.716;9.272;2023-08-20T14:53:59;6.80;;;4.57;;
44766;SDS011;30487;48.716;9.272;2023-08-20T14:56:24;6.28;;;4.30;;